createdAt,value
2017-07-23T00:01:06.829Z,25.44
2017-07-23T00:03:31.213Z,25.58
2017-07-23T00:05:55.617Z,25.44
2017-07-23T00:08:11.578Z,25.43
2017-07-23T00:10:35.902Z,25.19
2017-07-23T00:13:00.263Z,25.52
2017-07-23T00:15:16.209Z,25.34
2017-07-23T00:17:26.202Z,25.33
2017-07-23T00:19:50.619Z,25.39
2017-07-23T00:22:14.990Z,25.26
2017-07-23T00:24:30.930Z,25.4
2017-07-23T00:26:55.269Z,25.15
2017-07-23T00:29:19.679Z,24.92
2017-07-23T00:31:44.012Z,24.88
2017-07-23T00:34:08.314Z,24.92
2017-07-23T00:36:32.600Z,24.93
2017-07-23T00:38:56.908Z,24.99
2017-07-23T00:41:21.322Z,24.88
2017-07-23T00:43:45.608Z,25
2017-07-23T00:46:09.947Z,24.92
2017-07-23T00:48:34.275Z,24.81
2017-07-23T00:50:58.623Z,24.69
2017-07-23T00:53:22.866Z,24.81
2017-07-23T00:55:47.211Z,24.77
2017-07-23T00:58:11.499Z,24.46
2017-07-23T01:00:35.841Z,24.62
2017-07-23T01:03:00.098Z,24.71
2017-07-23T01:05:24.375Z,24.59
2017-07-23T01:07:48.697Z,24.55
2017-07-23T01:10:12.969Z,24.69
2017-07-23T01:12:37.291Z,24.66
2017-07-23T01:15:01.638Z,24.68
2017-07-23T01:17:11.590Z,24.92
2017-07-23T01:19:35.943Z,24.69
2017-07-23T01:22:00.264Z,24.53
2017-07-23T01:24:16.141Z,24.46
2017-07-23T01:26:40.475Z,24.59
2017-07-23T01:29:04.749Z,24.74
2017-07-23T01:31:29.046Z,24.68
2017-07-23T01:33:53.334Z,24.79
2017-07-23T01:35:54.853Z,24.78
2017-07-23T01:38:19.188Z,24.59
2017-07-23T01:40:35.023Z,24.71
2017-07-23T01:42:50.795Z,24.62
2017-07-23T01:45:00.775Z,24.63
2017-07-23T01:47:25.070Z,24.62
2017-07-23T01:49:49.364Z,24.44
2017-07-23T01:52:13.661Z,24.44
2017-07-23T01:54:21.060Z,24.47
2017-07-23T01:56:36.917Z,24.32
2017-07-23T01:59:01.214Z,24.41
2017-07-23T02:01:25.517Z,24.65
2017-07-23T02:03:49.752Z,24.47
2017-07-23T02:06:14.034Z,24.48
2017-07-23T02:08:38.283Z,24.34
2017-07-23T02:11:02.523Z,24.31
2017-07-23T02:13:26.753Z,24.16
2017-07-23T02:15:51.041Z,24.31
2017-07-23T02:18:15.350Z,24.41
2017-07-23T02:20:39.613Z,24.47
2017-07-23T02:23:03.854Z,24.47
2017-07-23T02:25:28.133Z,24.21
2017-07-23T02:27:44.002Z,24.29
2017-07-23T02:30:08.285Z,24.37
2017-07-23T02:32:32.597Z,24.11
2017-07-23T02:34:56.908Z,23.69
2017-07-23T02:37:21.200Z,23.67
2017-07-23T02:39:45.471Z,23.39
2017-07-23T02:42:09.733Z,23.49
2017-07-23T02:44:33.935Z,23.4
2017-07-23T02:46:49.726Z,23.39
2017-07-23T02:49:13.940Z,23.32
2017-07-23T02:51:39.328Z,23.14
2017-07-23T02:54:03.802Z,22.8
2017-07-23T02:56:28.046Z,22.78
2017-07-23T02:58:52.248Z,22.73
2017-07-23T03:01:16.447Z,22.47
2017-07-23T03:03:40.630Z,22.58
2017-07-23T03:06:05.865Z,22.53
2017-07-23T03:08:29.919Z,22.58
2017-07-23T03:10:54.585Z,22.7
2017-07-23T03:13:18.801Z,22.67
2017-07-23T03:15:43.015Z,22.59
2017-07-23T03:18:07.210Z,22.74
2017-07-23T03:20:31.311Z,22.52
2017-07-23T03:22:55.509Z,22.51
2017-07-23T03:25:19.684Z,22.67
2017-07-23T03:27:35.416Z,22.8
2017-07-23T03:29:51.099Z,22.65
2017-07-23T03:32:15.237Z,22.77
2017-07-23T03:34:39.459Z,22.92
2017-07-23T03:37:03.643Z,22.86
2017-07-23T03:39:27.829Z,22.93
2017-07-23T03:41:51.979Z,22.89
2017-07-23T03:44:16.172Z,23.01
2017-07-23T03:46:40.404Z,23.1
2017-07-23T03:49:04.493Z,23.02
2017-07-23T03:51:20.199Z,23.13
2017-07-23T03:53:35.914Z,23.25
2017-07-23T03:55:12.253Z,23.14
2017-07-23T03:57:36.460Z,23.25
2017-07-23T04:00:00.614Z,23.06
2017-07-23T04:02:24.788Z,23.26
2017-07-23T04:04:32.080Z,23.13
2017-07-23T04:06:56.283Z,23.23
2017-07-23T04:09:20.481Z,23.14
2017-07-23T04:11:44.657Z,22.95
2017-07-23T04:14:08.840Z,23.07
2017-07-23T04:16:24.584Z,23.08
2017-07-23T04:18:40.304Z,22.95
2017-07-23T04:21:04.490Z,22.8
2017-07-23T04:23:28.685Z,22.7
2017-07-23T04:25:52.896Z,23.02
2017-07-23T04:28:17.083Z,23.11
2017-07-23T04:30:41.272Z,23.02
2017-07-23T04:33:05.409Z,23.07
2017-07-23T04:35:29.579Z,22.99
2017-07-23T04:37:53.746Z,23.16
2017-07-23T04:40:17.963Z,23.14
2017-07-23T04:42:42.115Z,23.07
2017-07-23T04:44:57.791Z,22.7
2017-07-23T04:47:21.891Z,22.93
2017-07-23T04:49:37.753Z,23.06
2017-07-23T04:52:01.749Z,23.2
2017-07-23T04:54:17.482Z,23.16
2017-07-23T04:56:41.649Z,23.2
2017-07-23T04:58:57.319Z,22.89
2017-07-23T05:01:13.042Z,22.95
2017-07-23T05:03:37.212Z,23.04
2017-07-23T05:06:01.614Z,22.71
2017-07-23T05:08:25.759Z,22.71
2017-07-23T05:10:49.867Z,22.58
2017-07-23T05:13:05.618Z,22.78
2017-07-23T05:15:30.710Z,23.07
2017-07-23T05:17:54.810Z,23.23
2017-07-23T05:20:18.902Z,23.14
2017-07-23T05:22:43.061Z,23.26
2017-07-23T05:25:07.227Z,23.2
2017-07-23T05:27:31.597Z,23.34
2017-07-23T05:29:55.696Z,23.81
2017-07-23T05:31:57.562Z,24.21
2017-07-23T05:34:21.934Z,25.88
2017-07-23T05:36:46.204Z,26.83
2017-07-23T05:39:10.591Z,30.48
2017-07-23T05:41:26.663Z,28.93
2017-07-23T05:43:51.081Z,27.48
2017-07-23T05:46:07.298Z,26.48
2017-07-23T05:48:31.806Z,26.1
2017-07-23T05:50:56.410Z,25.83
2017-07-23T05:53:21.073Z,25.41
2017-07-23T05:55:45.416Z,25.03
2017-07-23T05:58:09.858Z,24.94
2017-07-23T06:00:34.218Z,24.18
2017-07-23T06:02:58.591Z,23.52
2017-07-23T06:05:22.899Z,23.32
2017-07-23T06:07:47.165Z,23.85
2017-07-23T06:10:11.548Z,23.94
2017-07-23T06:12:35.831Z,23.99
2017-07-23T06:14:59.994Z,24.5
2017-07-23T06:17:24.336Z,26.7
2017-07-23T06:19:48.591Z,26.22
2017-07-23T06:22:04.483Z,25.49
2017-07-23T06:24:28.809Z,25.25
2017-07-23T06:26:53.201Z,25.3
2017-07-23T06:29:17.601Z,26.6
2017-07-23T06:31:42.042Z,25.4
2017-07-23T06:34:06.524Z,24.99
2017-07-23T06:36:30.951Z,25.07
2017-07-23T06:38:55.384Z,25.24
2017-07-23T06:41:19.794Z,24.77
2017-07-23T06:43:44.207Z,25.19
2017-07-23T06:46:08.591Z,25.25
2017-07-23T06:48:32.978Z,26.93
2017-07-23T06:50:57.382Z,27.07
2017-07-23T06:53:13.375Z,26.44
2017-07-23T06:55:37.894Z,26.04
2017-07-23T06:58:02.418Z,26.46
2017-07-23T07:00:27.229Z,27.4
2017-07-23T07:02:53.098Z,28.53
2017-07-23T07:05:18.102Z,28.87
2017-07-23T07:07:42.970Z,28.82
2017-07-23T07:10:08.042Z,28.35
2017-07-23T07:12:32.950Z,29.28
2017-07-23T07:14:57.932Z,29.09
2017-07-23T07:17:22.995Z,28.64
2017-07-23T07:19:48.720Z,29.39
2017-07-23T07:22:13.786Z,29.13
2017-07-23T07:24:38.741Z,28.71
2017-07-23T07:27:06.342Z,27.83
2017-07-23T07:29:31.083Z,29.09
2017-07-23T07:31:56.008Z,28.87
2017-07-23T07:34:20.930Z,28.82
2017-07-23T07:36:33.219Z,29.39
2017-07-23T07:38:58.174Z,29.86
2017-07-23T07:41:23.086Z,28.93
2017-07-23T07:43:47.996Z,28.33
2017-07-23T07:45:32.733Z,28.23
2017-07-23T07:47:57.662Z,27.34
2017-07-23T07:50:22.385Z,27.98
2017-07-23T07:52:47.204Z,26.83
2017-07-23T07:55:12.017Z,27.53
2017-07-23T07:57:36.865Z,28.25
2017-07-23T08:00:02.507Z,28.52
2017-07-23T08:02:27.052Z,29.69
2017-07-23T08:04:52.739Z,28.62
2017-07-23T08:07:02.935Z,28.15
2017-07-23T08:09:27.661Z,28.27
2017-07-23T08:12:05.087Z,29.53
2017-07-23T08:14:29.963Z,30.8
2017-07-23T08:16:54.734Z,29.06
2017-07-23T08:19:19.560Z,29.73
2017-07-23T08:21:44.458Z,28.12
2017-07-23T08:24:09.468Z,28.37
2017-07-23T08:26:36.737Z,28.18
2017-07-23T08:29:01.683Z,29.02
2017-07-23T08:31:27.096Z,30.26
2017-07-23T08:33:51.963Z,28.77
2017-07-23T08:36:16.806Z,29
2017-07-23T08:38:41.672Z,28.55
2017-07-23T08:41:08.030Z,27.6
2017-07-23T08:43:32.988Z,27.3
2017-07-23T08:45:57.531Z,26.96
2017-07-23T08:48:00.251Z,26.67
2017-07-23T08:50:25.184Z,26.88
2017-07-23T08:52:52.185Z,26.52
2017-07-23T08:54:55.802Z,26.96
2017-07-23T08:57:20.468Z,27.11
2017-07-23T08:59:45.372Z,27.16
2017-07-23T09:02:10.021Z,29.62
2017-07-23T09:04:34.877Z,27.98
2017-07-23T09:06:59.541Z,27.91
2017-07-23T09:09:24.286Z,27.72
2017-07-23T09:11:49.042Z,27.11
2017-07-23T09:14:13.831Z,26.93
2017-07-23T09:16:38.508Z,26.51
2017-07-23T09:19:03.069Z,27.07
2017-07-23T09:21:29.991Z,27
2017-07-23T09:23:54.595Z,27.72
2017-07-23T09:26:19.221Z,27.81
2017-07-23T09:28:43.928Z,28.13
2017-07-23T09:31:08.471Z,29.62
2017-07-23T09:33:33.267Z,30.33
2017-07-23T09:35:58.653Z,30.81
2017-07-23T09:38:23.308Z,30.43
2017-07-23T09:40:48.707Z,30.73
2017-07-23T09:43:13.236Z,30.13
2017-07-23T09:45:38.639Z,31.02
2017-07-23T09:48:04.767Z,30.8
2017-07-23T09:50:18.369Z,30.78
2017-07-23T09:55:16.469Z,31.11
2017-07-23T09:57:41.751Z,31.9
2017-07-23T10:00:06.941Z,31.42
2017-07-23T10:02:32.454Z,31.05
2017-07-23T10:04:57.682Z,30.74
2017-07-23T10:10:37.715Z,31.1
2017-07-23T10:13:03.573Z,29.52
2017-07-23T10:15:28.587Z,29.5
2017-07-23T10:17:53.596Z,28.82
2017-07-23T10:20:18.844Z,28.57
2017-07-23T10:22:44.981Z,28.52
2017-07-23T10:25:10.012Z,28.25
2017-07-23T10:27:34.789Z,27.93
2017-07-23T10:30:00.530Z,28.03
2017-07-23T10:32:25.094Z,27.13
2017-07-23T10:34:50.697Z,26.39
2017-07-23T10:37:16.921Z,26.3
2017-07-23T10:39:41.808Z,26.33
2017-07-23T10:42:06.598Z,27.35
2017-07-23T10:44:22.688Z,28.2
2017-07-23T10:46:47.798Z,28.28
2017-07-23T10:49:12.772Z,28.41
2017-07-23T10:51:37.488Z,29.2
2017-07-23T10:54:03.572Z,29.37
2017-07-23T10:56:28.550Z,29.09
2017-07-23T10:58:53.508Z,29.69
2017-07-23T11:01:20.611Z,29.28
2017-07-23T11:03:46.356Z,29.86
2017-07-23T11:06:12.160Z,29.21
2017-07-23T11:08:38.189Z,29.95
2017-07-23T11:11:03.893Z,29.84
2017-07-23T11:13:31.539Z,29.98
2017-07-23T11:15:56.818Z,29.44
2017-07-23T11:18:21.934Z,29.81
2017-07-23T11:20:46.800Z,29.98
2017-07-23T11:23:11.668Z,29.73
2017-07-23T11:25:36.698Z,29.3
2017-07-23T11:28:01.724Z,29.4
2017-07-23T11:30:26.703Z,28.64
2017-07-23T11:32:52.676Z,28.82
2017-07-23T11:35:18.515Z,29.25
2017-07-23T11:36:58.012Z,29.76
2017-07-23T11:39:00.723Z,30.18
2017-07-23T11:41:25.299Z,29.64
2017-07-23T11:43:51.994Z,29.32
2017-07-23T11:46:17.101Z,29.81
2017-07-23T11:48:43.147Z,28.55
2017-07-23T11:51:08.350Z,29.34
2017-07-23T11:53:36.882Z,29.71
2017-07-23T11:56:01.860Z,28.89
2017-07-23T11:58:27.745Z,29.22
2017-07-23T12:00:53.004Z,28.12
2017-07-23T12:03:17.941Z,28.77
2017-07-23T12:05:43.572Z,29.1
2017-07-23T12:08:01.882Z,30.11
2017-07-23T12:10:26.623Z,30.61
2017-07-23T12:12:51.571Z,30.61
2017-07-23T12:15:16.520Z,30.08
2017-07-23T12:17:46.370Z,29.84
2017-07-23T12:20:12.362Z,30.08
2017-07-23T12:22:39.799Z,29.77
2017-07-23T12:25:04.166Z,29.28
2017-07-23T12:27:29.904Z,29.98
2017-07-23T12:29:54.894Z,30.27
2017-07-23T12:32:19.817Z,29.84
2017-07-23T12:34:44.911Z,29.28
2017-07-23T12:37:09.894Z,29.92
2017-07-23T12:39:34.884Z,30.16
2017-07-23T12:42:00.241Z,30.03
2017-07-23T12:44:25.905Z,29.96
2017-07-23T12:46:42.195Z,29.03
2017-07-23T12:49:07.123Z,28.53
2017-07-23T12:51:31.988Z,28.53
2017-07-23T12:53:57.131Z,28.87
2017-07-23T12:56:21.934Z,29.06
2017-07-23T12:58:46.714Z,29.16
2017-07-23T13:01:11.512Z,29.58
2017-07-23T13:03:36.352Z,29.8
2017-07-23T13:06:01.202Z,29.1
2017-07-23T13:08:25.999Z,28.97
2017-07-23T13:10:50.794Z,29.13
2017-07-23T13:13:15.596Z,29.12
2017-07-23T13:15:40.372Z,29.58
2017-07-23T13:18:05.177Z,29.8
2017-07-23T13:20:30.135Z,29.5
2017-07-23T13:22:54.860Z,29.49
2017-07-23T13:25:19.615Z,29.27
2017-07-23T13:27:44.443Z,29.15
2017-07-23T13:30:09.230Z,29.42
2017-07-23T13:32:33.996Z,29.81
2017-07-23T13:34:58.763Z,29.76
2017-07-23T13:37:23.531Z,29.71
2017-07-23T13:39:33.929Z,29.64
2017-07-23T13:41:59.428Z,29.71
2017-07-23T13:44:24.214Z,28.9
2017-07-23T13:46:49.023Z,29.22
2017-07-23T13:49:13.816Z,29.5
2017-07-23T13:51:38.631Z,29.18
2017-07-23T13:55:31.330Z,29.49
2017-07-23T13:57:56.167Z,29.68
2017-07-23T14:00:20.942Z,28.53
2017-07-23T14:02:37.701Z,28.94
2017-07-23T14:04:53.925Z,28.86
2017-07-23T14:06:30.524Z,28.52
2017-07-23T14:08:55.276Z,28.45
2017-07-23T14:11:20.112Z,28.52
2017-07-23T14:13:44.702Z,28.5
2017-07-23T14:16:09.406Z,28.55
2017-07-23T14:18:34.048Z,28.18
2017-07-23T14:20:41.798Z,27.82
2017-07-23T14:23:06.484Z,27.81
2017-07-23T14:25:31.274Z,27.73
2017-07-23T14:27:55.938Z,27.19
2017-07-23T14:30:20.660Z,27.85
2017-07-23T14:32:45.264Z,27.23
2017-07-23T14:35:09.950Z,27.58
2017-07-23T14:37:34.600Z,27.76
2017-07-23T14:40:00.272Z,27.58
2017-07-23T14:42:24.887Z,27.76
2017-07-23T14:44:49.506Z,28.38
2017-07-23T14:47:05.672Z,28.35
2017-07-23T14:49:30.294Z,28.33
2017-07-23T14:51:46.478Z,27.93
2017-07-23T14:54:11.159Z,27.95
2017-07-23T14:56:27.335Z,27.91
2017-07-23T14:58:30.450Z,27.55
2017-07-23T15:00:55.123Z,28.28
2017-07-23T15:02:56.597Z,27.97
2017-07-23T15:04:58.754Z,28.27
2017-07-23T15:07:23.467Z,28.34
2017-07-23T15:09:48.125Z,27.82
2017-07-23T15:12:12.761Z,28.2
2017-07-23T15:14:37.452Z,28.41
2017-07-23T15:17:02.118Z,28.2
2017-07-23T15:19:26.730Z,28.23
2017-07-23T15:21:42.923Z,28.13
2017-07-23T15:24:07.559Z,27.58
2017-07-23T15:26:32.199Z,27.91
2017-07-23T15:28:48.358Z,28.2
2017-07-23T15:31:13.028Z,28.15
2017-07-23T15:33:29.204Z,28.06
2017-07-23T15:35:53.836Z,27.76
2017-07-23T15:38:10.006Z,27.75
2017-07-23T15:40:34.655Z,28.03
2017-07-23T15:42:59.352Z,26.7
2017-07-23T15:45:23.983Z,27.03
2017-07-23T15:47:48.585Z,27.33
2017-07-23T15:50:13.254Z,27.58
2017-07-23T15:52:37.879Z,27.33
2017-07-23T15:54:39.391Z,27.68
2017-07-23T15:57:04.035Z,27.61
2017-07-23T15:59:28.684Z,27.68
2017-07-23T16:01:53.331Z,27.83
2017-07-23T16:03:29.214Z,27.5
2017-07-23T16:05:45.712Z,27.73
2017-07-23T16:07:47.702Z,27.57
2017-07-23T16:10:12.362Z,27.61
2017-07-23T16:12:37.285Z,27.58
2017-07-23T16:15:04.902Z,27.88
2017-07-23T16:17:29.535Z,28.08
2017-07-23T16:19:22.585Z,28.01
2017-07-23T16:21:47.202Z,28.16
2017-07-23T16:24:11.837Z,28.3
2017-07-23T16:26:28.041Z,28.3
2017-07-23T16:28:52.621Z,27.47
2017-07-23T16:31:17.252Z,27.26
2017-07-23T16:33:41.865Z,27
2017-07-23T16:36:06.417Z,26.85
2017-07-23T16:38:31.039Z,26.98
2017-07-23T16:40:55.613Z,26.97
2017-07-23T16:43:11.709Z,27.28
2017-07-23T16:45:36.304Z,26.96
2017-07-23T16:48:00.809Z,26.83
2017-07-23T16:50:16.908Z,26.97
2017-07-23T16:52:41.459Z,26.78
2017-07-23T16:54:57.456Z,26.73
2017-07-23T16:57:21.987Z,26.31
2017-07-23T16:59:38.022Z,26.39
2017-07-23T17:02:02.507Z,26.16
2017-07-23T17:04:04.098Z,26.45
2017-07-23T17:06:28.554Z,26.41
2017-07-23T17:08:53.029Z,26.11
2017-07-23T17:11:09.027Z,26.01
2017-07-23T17:13:33.511Z,26.07
2017-07-23T17:15:57.951Z,26.07
2017-07-23T17:18:22.385Z,26.07
2017-07-23T17:20:46.799Z,25.93
2017-07-23T17:23:11.209Z,25.93
2017-07-23T17:25:35.648Z,26.07
2017-07-23T17:28:00.102Z,26.18
2017-07-23T17:30:24.534Z,25.96
2017-07-23T17:32:48.972Z,26.19
2017-07-23T17:34:56.501Z,26.26
2017-07-23T17:37:20.948Z,26.51
2017-07-23T17:39:45.451Z,26.59
2017-07-23T17:42:01.473Z,26.68
2017-07-23T17:44:26.259Z,26.67
2017-07-23T17:46:50.590Z,26.93
2017-07-23T17:49:15.050Z,26.52
2017-07-23T17:51:39.494Z,26.68
2017-07-23T17:54:03.913Z,26.59
2017-07-23T17:56:28.500Z,26.53
2017-07-23T17:58:52.943Z,26.41
2017-07-23T18:01:17.442Z,26.51
2017-07-23T18:03:41.973Z,26.49
2017-07-23T18:06:06.629Z,26.53
2017-07-23T18:08:31.111Z,26.6
2017-07-23T18:10:55.564Z,26.46
2017-07-23T18:13:19.967Z,26.11
2017-07-23T18:15:44.504Z,26.06
2017-07-23T18:18:08.809Z,26.3
2017-07-23T18:20:33.295Z,26.36
2017-07-23T18:22:57.814Z,26.44
2017-07-23T18:25:13.766Z,26.03
2017-07-23T18:27:38.356Z,26.07
2017-07-23T18:30:03.076Z,26.19
2017-07-23T18:32:27.570Z,26.26
2017-07-23T18:34:51.956Z,25.95
2017-07-23T18:37:16.399Z,25.89
2017-07-23T18:39:40.836Z,25.96
2017-07-23T18:42:05.483Z,26.11
2017-07-23T18:44:29.942Z,26.06
2017-07-23T18:46:54.312Z,25.93
2017-07-23T18:49:18.970Z,25.8
2017-07-23T18:51:43.522Z,26.06
2017-07-23T18:54:07.933Z,25.95
2017-07-23T18:56:32.421Z,25.89
2017-07-23T18:58:56.828Z,25.76
2017-07-23T19:01:21.452Z,25.62
2017-07-23T19:03:45.875Z,25.62
2017-07-23T19:06:10.312Z,25.55
2017-07-23T19:08:34.929Z,25.37
2017-07-23T19:10:59.266Z,25.31
2017-07-23T19:13:23.830Z,25.52
2017-07-23T19:15:48.177Z,25.37
2017-07-23T19:18:12.525Z,25.4
2017-07-23T19:20:37.001Z,25.39
2017-07-23T19:23:01.876Z,25.31
2017-07-23T19:25:26.619Z,25.26
2017-07-23T19:27:42.648Z,25.33
2017-07-23T19:30:07.095Z,25.24
2017-07-23T19:32:32.685Z,25.16
2017-07-23T19:34:57.473Z,24.96
2017-07-23T19:37:21.780Z,25.01
2017-07-23T19:39:46.557Z,24.85
2017-07-23T19:42:11.502Z,24.99
2017-07-23T19:44:36.462Z,24.94
2017-07-23T19:47:02.562Z,24.97
2017-07-23T19:49:26.847Z,25
2017-07-23T19:51:51.487Z,24.96
2017-07-23T19:54:15.802Z,24.75
2017-07-23T19:56:40.115Z,24.75
2017-07-23T19:59:04.402Z,24.48
2017-07-23T20:01:29.381Z,24.68
2017-07-23T20:03:53.626Z,24.66
2017-07-23T20:06:17.980Z,24.78
2017-07-23T20:08:42.262Z,24.68
2017-07-23T20:11:06.594Z,24.97
2017-07-23T20:13:30.979Z,24.99
2017-07-23T20:15:55.316Z,24.71
2017-07-23T20:18:19.663Z,24.86
2017-07-23T20:20:44.060Z,24.82
2017-07-23T20:23:08.379Z,24.62
2017-07-23T20:25:32.731Z,24.47
2017-07-23T20:27:57.028Z,24.66
2017-07-23T20:29:58.450Z,24.84
2017-07-23T20:32:22.808Z,24.97
2017-07-23T20:34:47.136Z,24.89
2017-07-23T20:37:11.447Z,24.79
2017-07-23T20:39:13.371Z,24.89
2017-07-23T20:41:37.731Z,24.5
2017-07-23T20:44:02.013Z,24.43
2017-07-23T20:46:26.248Z,24.48
2017-07-23T20:48:42.072Z,24.43
2017-07-23T20:51:06.353Z,24.46
2017-07-23T20:53:30.647Z,24.5
2017-07-23T20:55:46.496Z,24.61
2017-07-23T20:58:10.891Z,24.71
2017-07-23T21:00:35.148Z,24.59
2017-07-23T21:02:59.476Z,24.53
2017-07-23T21:05:23.780Z,24.56
2017-07-23T21:07:48.130Z,24.68
2017-07-23T21:10:12.446Z,24.51
2017-07-23T21:12:36.694Z,24.46
2017-07-23T21:15:00.980Z,24.32
2017-07-23T21:17:16.831Z,24.24
2017-07-23T21:19:41.174Z,24.31
2017-07-23T21:22:05.560Z,24.34
2017-07-23T21:24:29.845Z,24.21
2017-07-23T21:26:54.237Z,24.22
2017-07-23T21:29:18.530Z,24.13
2017-07-23T21:31:43.939Z,24.19
2017-07-23T21:34:08.356Z,23.85
2017-07-23T21:36:32.632Z,23.94
2017-07-23T21:38:56.914Z,23.86
2017-07-23T21:41:21.296Z,23.95
2017-07-23T21:43:45.571Z,23.96
2017-07-23T21:46:10.912Z,23.82
2017-07-23T21:48:35.363Z,24.06
2017-07-23T21:50:59.736Z,24.09
2017-07-23T21:53:24.119Z,24.04
2017-07-23T21:55:48.539Z,24.07
2017-07-23T21:58:12.863Z,23.66
2017-07-23T22:00:37.265Z,23.44
2017-07-23T22:03:01.361Z,23.55
2017-07-23T22:05:17.166Z,23.49
2017-07-23T22:07:41.397Z,23.1
2017-07-23T22:10:05.837Z,23.29
2017-07-23T22:12:30.026Z,23.52
2017-07-23T22:14:54.226Z,23.4
2017-07-23T22:17:18.409Z,23.14
2017-07-23T22:19:43.766Z,23.29
2017-07-23T22:22:08.128Z,23.51
2017-07-23T22:24:32.342Z,23.55
2017-07-23T22:26:56.619Z,23.67
2017-07-23T22:29:20.914Z,23.67
2017-07-23T22:31:44.985Z,23.64
2017-07-23T22:34:09.212Z,23.88
2017-07-23T22:36:33.389Z,23.88
2017-07-23T22:38:57.588Z,23.88
2017-07-23T22:41:21.776Z,23.84
2017-07-23T22:43:45.994Z,24.01
2017-07-23T22:46:10.232Z,23.95
2017-07-23T22:48:34.561Z,23.82
2017-07-23T22:50:58.751Z,23.94
2017-07-23T22:53:22.976Z,23.96
2017-07-23T22:55:47.215Z,24.1
2017-07-23T22:58:11.432Z,23.94
2017-07-23T23:00:18.777Z,23.71
2017-07-23T23:02:42.992Z,23.84
2017-07-23T23:05:07.237Z,23.85
2017-07-23T23:07:23.053Z,23.63
2017-07-23T23:09:47.345Z,23.56
2017-07-23T23:12:11.549Z,23.48
2017-07-23T23:14:35.751Z,23.45
2017-07-23T23:16:59.997Z,23.67
2017-07-23T23:19:15.689Z,23.71
2017-07-23T23:21:39.877Z,23.62
2017-07-23T23:23:55.626Z,23.66
2017-07-23T23:26:19.809Z,23.39
2017-07-23T23:28:44.017Z,23.34
2017-07-23T23:30:54.459Z,23.33
2017-07-23T23:33:18.630Z,23.21
2017-07-23T23:35:42.829Z,23.23
2017-07-23T23:38:07.008Z,23.16
2017-07-23T23:40:31.199Z,23.07
2017-07-23T23:42:55.405Z,23.01
2017-07-23T23:45:19.546Z,22.99
2017-07-23T23:47:43.730Z,23.23
2017-07-23T23:49:59.450Z,23.04
2017-07-23T23:52:23.579Z,23.13
2017-07-23T23:54:39.294Z,23.14
2017-07-23T23:57:03.462Z,22.99
2017-07-23T23:59:27.643Z,23.25
